Time;durP1;ratioP1;P1;durP2;ratioP2;P2;SDS_P1;SDS_P2;PMS_P1;PMS_P2;Temp;Humidity;BMP_temperature;BMP_pressure;BME280_temperature;BME280_humidity;BME280_pressure;Samples;Min_cycle;Max_cycle;Signal;HPM_P1;HPM_P2
2023/03/10 00:09:39;;;;;;;31.57;12.70;;;0.20;99.90;;;;;;4807230;29;20057;-88
2023/03/10 00:18:52;;;;;;;;;;;;;;;;;;;;;
2023/03/10 00:30:00;;;;;;;29.13;11.87;;;0.30;99.90;;;;;;5010378;23;20057;-87
2023/03/10 00:33:12;;;;;;;30.70;12.23;;;0.40;99.90;;;;;;4831884;29;20137;-88
2023/03/10 00:36:08;;;;;;;26.63;11.47;;;-0.60;99.90;;;;;;4879895;29;20056;-89
2023/03/10 00:39:09;;;;;;;30.43;12.10;;;0.80;99.90;;;;;;4863701;29;20056;-88
2023/03/10 00:43:07;;;;;;;28.37;11.27;;;1.20;99.90;;;;;;4825478;29;20621;-88
2023/03/10 00:46:11;;;;;;;30.43;12.20;;;1.40;99.90;;;;;;4766374;30;20060;-87
2023/03/10 00:49:35;;;;;;;26.80;11.20;;;0.60;99.90;;;;;;4772759;30;20059;-88
2023/03/10 00:53:13;;;;;;;25.63;10.40;;;0.50;99.90;;;;;;4763033;30;20104;-87
2023/03/10 00:59:20;;;;;;;29.97;11.03;;;0.80;99.90;;;;;;4767871;30;20135;-87
2023/03/10 01:19:45;;;;;;;26.47;10.80;;;0.20;99.90;;;;;;4822001;29;20049;-87
2023/03/10 01:22:52;;;;;;;;;;;;;;;;;;;;;
2023/03/10 01:25:54;;;;;;;26.13;10.80;;;-0.20;99.90;;;;;;4785501;30;20070;-86
2023/03/10 02:16:53;;;;;;;32.47;12.55;;;-0.20;99.90;;;;;;4862343;29;19980;-85
2023/03/10 02:23:52;;;;;;;30.90;12.93;;;-0.50;99.90;;;;;;4873754;23;20075;-85
2023/03/10 02:36:25;;;;;;;27.10;11.57;;;0.20;99.90;;;;;;4839177;29;20090;-86
2023/03/10 02:49:32;;;;;;;;;;;;;;;;;;;;;
2023/03/10 02:53:19;;;;;;;28.57;10.43;;;-0.50;99.90;;;;;;4837231;29;20072;-85
2023/03/10 03:02:14;;;;;;;24.67;10.27;;;0.20;99.90;;;;;;5077102;23;20045;-85
2023/03/10 03:21:26;;;;;;;32.60;11.50;;;1.80;99.90;;;;;;4836074;29;20050;-85
2023/03/10 03:26:54;;;;;;;23.77;9.77;;;0.20;99.90;;;;;;4844391;29;20054;-85
2023/03/10 03:29:28;;;;;;;25.27;10.10;;;-0.60;99.90;;;;;;4963124;23;20061;-85
2023/03/10 03:32:34;;;;;;;24.42;9.82;;;0.30;99.90;;;;;;4875171;29;20049;-84
2023/03/10 03:46:04;;;;;;;32.60;12.63;;;0.70;99.90;;;;;;4888518;29;20121;-85
2023/03/10 03:48:57;;;;;;;25.93;11.17;;;1.10;99.90;;;;;;4882061;29;20490;-85
2023/03/10 03:58:55;;;;;;;33.03;13.80;;;0.30;99.90;;;;;;4827046;29;20061;-86
2023/03/10 04:08:50;;;;;;;30.40;13.63;;;-1.00;99.90;;;;;;4733867;30;20115;-86
2023/03/10 04:12:08;;;;;;;31.63;12.87;;;0.30;99.90;;;;;;4734193;30;20061;-84
2023/03/10 04:15:30;;;;;;;30.53;12.90;;;-0.30;99.90;;;;;;4733890;30;20061;-85
2023/03/10 04:18:38;;;;;;;31.37;13.13;;;-0.30;99.90;;;;;;4719137;30;20059;-85
2023/03/10 04:21:59;;;;;;;31.87;12.87;;;0.40;99.90;;;;;;4718710;30;20056;-85
2023/03/10 04:24:25;;;;;;;33.43;13.63;;;0.90;99.90;;;;;;4718512;30;20619;-84
2023/03/10 04:33:02;;;;;;;31.33;13.33;;;0.30;99.90;;;;;;5053327;23;20061;-85
2023/03/10 04:35:33;;;;;;;34.07;12.90;;;1.20;99.90;;;;;;4770362;30;20051;-85
2023/03/10 04:45:31;;;;;;;;;;;;;;;;;;;;;
2023/03/10 04:56:18;;;;;;;27.73;10.60;;;0.30;99.90;;;;;;4625259;31;20130;-86
2023/03/10 04:59:38;;;;;;;;;;;;;;;;;;;;;
2023/03/10 05:12:53;;;;;;;26.13;10.33;;;-1.00;99.90;;;;;;6145432;22;1361468;-86
2023/03/10 05:15:57;;;;;;;25.57;9.73;;;0.10;99.90;;;;;;6191610;23;20260;-86
2023/03/10 05:18:38;;;;;;;23.98;10.05;;;1.60;99.90;;;;;;6078412;23;20461;-86
2023/03/10 05:21:28;;;;;;;22.33;9.33;;;0.90;99.90;;;;;;6105797;23;20021;-86
2023/03/10 05:24:18;;;;;;;22.70;9.20;;;0.20;99.90;;;;;;6190912;23;20075;-86
2023/03/10 05:26:44;;;;;;;22.03;8.43;;;1.00;99.90;;;;;;6191514;23;20100;-86
2023/03/10 05:33:06;;;;;;;25.97;9.20;;;-0.60;99.90;;;;;;6191573;23;20040;-86
2023/03/10 05:35:51;;;;;;;23.53;9.57;;;0.10;99.90;;;;;;6154783;23;20025;-86
2023/03/10 05:38:20;;;;;;;21.07;9.10;;;0.30;99.90;;;;;;6133637;23;20023;-86
2023/03/10 05:44:42;;;;;;;23.57;8.90;;;0.30;99.90;;;;;;6043709;23;20023;-86
2023/03/10 05:47:17;;;;;;;21.50;9.27;;;0.40;99.90;;;;;;6044751;23;20052;-85
2023/03/10 05:50:19;;;;;;;22.90;9.60;;;1.80;99.90;;;;;;6042792;23;20016;-86
2023/03/10 05:53:32;;;;;;;24.23;9.95;;;1.50;99.90;;;;;;6020660;23;20042;-85
2023/03/10 05:55:58;;;;;;;24.13;9.30;;;1.30;99.90;;;;;;5882457;24;20032;-85
2023/03/10 05:58:25;;;;;;;23.33;9.07;;;-0.10;99.90;;;;;;5881263;24;20017;-85
2023/03/10 06:00:56;;;;;;;24.53;9.50;;;-0.80;99.90;;;;;;5968453;23;20015;-86
2023/03/10 06:03:46;;;;;;;25.33;10.20;;;0.20;99.90;;;;;;6033924;23;20028;-84
2023/03/10 06:12:59;;;;;;;23.87;9.10;;;0.20;99.90;;;;;;6129891;23;20030;-86
2023/03/10 06:15:50;;;;;;;25.40;9.37;;;0.70;99.90;;;;;;6125388;23;20021;-86
2023/03/10 06:21:04;;;;;;;;;;;;;;;;;;;;;
2023/03/10 06:27:26;;;;;;;24.07;9.43;;;-0.90;99.90;;;;;;6138883;23;20046;-85
2023/03/10 06:29:52;;;;;;;26.47;10.10;;;0.10;99.90;;;;;;6109434;23;20079;-85
2023/03/10 06:32:43;;;;;;;25.30;9.80;;;-0.60;99.90;;;;;;6095971;23;20022;-85
2023/03/10 06:50:50;;;;;;;25.03;10.63;;;0.30;99.90;;;;;;6095798;23;20089;-86
2023/03/10 06:58:55;;;;;;;25.97;10.20;;;0.30;99.90;;;;;;6130269;23;20033;-86
2023/03/10 07:01:45;;;;;;;23.83;10.07;;;0.50;99.90;;;;;;6128093;23;20026;-87
2023/03/10 07:04:53;;;;;;;31.33;11.30;;;1.80;99.90;;;;;;6109032;23;20532;-87
2023/03/10 07:07:19;;;;;;;24.90;10.63;;;0.30;99.90;;;;;;6124894;23;20116;-85
2023/03/10 07:09:47;;;;;;;23.83;10.47;;;1.10;99.90;;;;;;6125516;23;20439;-86
2023/03/10 07:12:32;;;;;;;27.13;11.53;;;0.70;99.90;;;;;;6125605;23;20398;-85
2023/03/10 07:14:58;;;;;;;30.73;11.70;;;1.30;99.90;;;;;;6124926;23;20355;-86
2023/03/10 07:17:26;;;;;;;27.33;12.17;;;0.70;99.90;;;;;;6125328;23;20021;-86
2023/03/10 07:20:02;;;;;;;25.63;11.60;;;0.10;99.90;;;;;;6126618;23;20061;-86
2023/03/10 07:22:49;;;;;;;29.00;12.57;;;0.60;99.90;;;;;;6125818;23;20025;-88
2023/03/10 07:25:21;;;;;;;28.97;12.20;;;1.40;99.90;;;;;;6124694;23;20018;-85
2023/03/10 07:28:06;;;;;;;27.37;11.87;;;0.20;99.90;;;;;;6124692;23;20081;-89
2023/03/10 07:30:38;;;;;;;28.40;12.73;;;0.50;99.90;;;;;;6034523;23;20018;-91
2023/03/10 07:35:47;;;;;;;28.37;12.37;;;0.50;99.90;;;;;;6126258;23;20022;-88
2023/03/10 07:39:23;;;;;;;;;;;;;;;;;;;;;
2023/03/10 08:01:29;;;;;;;30.90;13.60;;;0.60;99.90;;;;;;6151355;23;20034;-86
2023/03/10 08:04:07;;;;;;;28.23;12.52;;;0.40;99.90;;;;;;6138295;23;20034;-86
2023/03/10 08:07:39;;;;;;;31.97;13.50;;;0.20;99.90;;;;;;6126304;23;20073;-89
2023/03/10 08:11:09;;;;;;;28.67;13.23;;;0.00;99.90;;;;;;6124432;23;20022;-87
2023/03/10 08:14:02;;;;;;;28.93;12.67;;;1.00;99.90;;;;;;6122909;23;20029;-89
2023/03/10 08:16:50;;;;;;;26.70;12.97;;;2.10;99.90;;;;;;6124141;23;20018;-87
2023/03/10 08:19:31;;;;;;;29.63;13.37;;;0.70;99.90;;;;;;6114261;23;20017;-86
2023/03/10 08:22:20;;;;;;;29.63;12.68;;;0.50;99.90;;;;;;6123981;23;20461;-87
2023/03/10 08:24:49;;;;;;;29.43;12.17;;;-0.30;99.90;;;;;;6123164;23;20032;-87
2023/03/10 08:27:21;;;;;;;25.27;12.33;;;2.50;99.90;;;;;;6123387;23;20057;-87
2023/03/10 08:30:27;;;;;;;27.80;12.80;;;1.20;99.90;;;;;;6126420;23;20026;-87
2023/03/10 08:36:41;;;;;;;27.93;12.53;;;2.80;99.90;;;;;;6125857;23;20020;-88
2023/03/10 08:39:21;;;;;;;25.17;12.20;;;1.90;99.90;;;;;;6125308;23;20029;-87
2023/03/10 08:45:17;;;;;;;26.77;12.97;;;2.40;99.90;;;;;;6124503;23;20022;-86
2023/03/10 08:47:49;;;;;;;26.07;12.33;;;0.60;99.90;;;;;;6124067;23;20391;-86
2023/03/10 08:50:23;;;;;;;24.23;11.53;;;0.60;99.90;;;;;;6123381;23;20037;-87
2023/03/10 08:52:49;;;;;;;26.37;12.57;;;0.50;99.90;;;;;;6123458;23;20394;-87
2023/03/10 08:55:27;;;;;;;28.70;12.23;;;1.40;99.90;;;;;;6122287;23;20014;-86
2023/03/10 08:58:04;;;;;;;24.60;11.63;;;0.90;99.90;;;;;;6122455;23;20022;-86
2023/03/10 09:00:48;;;;;;;24.03;11.10;;;0.80;99.90;;;;;;6122486;23;20022;-86
2023/03/10 09:03:41;;;;;;;25.30;11.68;;;0.60;99.90;;;;;;6123608;23;20018;-87
2023/03/10 09:06:28;;;;;;;24.83;10.97;;;0.50;99.90;;;;;;6122984;23;20026;-87
2023/03/10 09:16:38;;;;;;;25.33;12.37;;;0.90;99.90;;;;;;6124687;23;20049;-87
2023/03/10 09:19:27;;;;;;;23.97;11.50;;;0.60;99.90;;;;;;6124004;23;20022;-89
2023/03/10 09:21:56;;;;;;;23.83;11.17;;;1.90;99.90;;;;;;6124684;23;20089;-87
2023/03/10 09:24:23;;;;;;;26.63;12.97;;;1.30;99.90;;;;;;6136497;23;20006;-87
2023/03/10 09:29:18;;;;;;;25.67;11.50;;;1.00;99.90;;;;;;6125151;23;20026;-87
2023/03/10 09:31:53;;;;;;;24.00;11.93;;;2.70;99.90;;;;;;6137701;23;20113;-86
2023/03/10 09:37:43;;;;;;;26.33;12.43;;;1.30;99.90;;;;;;6030897;23;20050;-88
2023/03/10 09:40:25;;;;;;;23.70;11.80;;;1.00;99.90;;;;;;6063490;23;20056;-87
2023/03/10 11:49:52;;;;;;;;;;;;;;;;;;;;;
2023/03/10 11:52:44;;;;;;;31.53;14.70;;;0.60;99.90;;;;;;6064979;23;20058;-90
2023/03/10 13:35:29;;;;;;;29.60;13.85;;;0.40;99.90;;;;;;6063149;23;20065;-88
2023/03/10 13:41:53;;;;;;;32.03;13.47;;;0.40;99.90;;;;;;6129779;23;20105;-88
2023/03/10 14:08:15;;;;;;;35.13;14.30;;;0.50;99.90;;;;;;6127645;23;20085;-89
2023/03/10 14:55:20;;;;;;;34.47;13.90;;;1.90;99.90;;;;;;6102451;23;20029;-88
2023/03/10 15:18:52;;;;;;;32.00;13.70;;;0.30;99.90;;;;;;6158773;23;20029;-88
2023/03/10 15:49:07;;;;;;;28.53;12.77;;;1.60;99.90;;;;;;6049841;23;20014;-87
2023/03/10 15:55:40;;;;;;;;;;;;;;;;;;;;;
2023/03/10 15:58:56;;;;;;;27.97;11.67;;;1.10;99.90;;;;;;6088512;23;20041;-85
2023/03/10 16:01:22;;;;;;;27.20;11.20;;;0.10;99.90;;;;;;6100154;23;20026;-84
2023/03/10 16:03:54;;;;;;;24.63;10.70;;;0.20;99.90;;;;;;6098675;23;20101;-85
2023/03/10 16:06:43;;;;;;;31.30;12.57;;;1.00;99.90;;;;;;6126297;23;20463;-85
2023/03/10 16:09:17;;;;;;;30.27;12.83;;;1.00;99.90;;;;;;6125231;23;20018;-85
2023/03/10 16:11:45;;;;;;;26.43;12.53;;;0.30;99.90;;;;;;6126380;23;20022;-85
2023/03/10 16:14:11;;;;;;;32.13;14.33;;;0.20;99.90;;;;;;6126000;23;20029;-85
2023/03/10 16:16:43;;;;;;;36.07;14.50;;;-0.30;99.90;;;;;;6096867;23;20057;-84
2023/03/10 16:19:17;;;;;;;34.37;14.23;;;-0.10;99.90;;;;;;6125202;23;20093;-84
2023/03/10 16:21:46;;;;;;;39.47;16.07;;;0.30;99.90;;;;;;6098914;23;20022;-86
2023/03/10 16:24:30;;;;;;;36.70;17.27;;;-0.10;99.90;;;;;;6100880;23;20022;-86
2023/03/10 16:27:02;;;;;;;41.15;16.92;;;1.20;99.90;;;;;;6099982;23;20029;-86
2023/03/10 16:29:33;;;;;;;37.20;14.73;;;0.40;99.90;;;;;;6099572;23;20426;-86
2023/03/10 16:32:12;;;;;;;27.13;11.00;;;-0.70;99.90;;;;;;6098224;23;20014;-86
2023/03/10 16:34:41;;;;;;;31.67;14.80;;;1.40;99.90;;;;;;6099783;23;20423;-85
2023/03/10 16:37:13;;;;;;;33.57;14.43;;;2.10;99.90;;;;;;6101722;23;20018;-86
2023/03/10 16:39:52;;;;;;;28.87;12.63;;;0.40;99.90;;;;;;6101300;23;20081;-87
2023/03/10 16:42:22;;;;;;;29.87;12.37;;;-0.10;99.90;;;;;;6100208;23;20100;-87
2023/03/10 16:44:53;;;;;;;30.47;12.83;;;2.40;99.90;;;;;;6099895;23;20018;-87
2023/03/10 16:47:19;;;;;;;40.83;15.70;;;0.90;99.90;;;;;;6119918;23;20002;-87
2023/03/10 16:49:51;;;;;;;36.33;15.73;;;0.50;99.90;;;;;;6129885;23;20072;-90
2023/03/10 16:52:20;;;;;;;32.80;14.87;;;-0.30;99.90;;;;;;6102569;23;20029;-86
2023/03/10 16:54:46;;;;;;;43.90;18.03;;;-0.10;99.90;;;;;;6146893;23;20021;-87
2023/03/10 16:57:45;;;;;;;34.37;16.20;;;-0.10;99.90;;;;;;6130822;23;20017;-89
2023/03/10 17:00:31;;;;;;;37.57;15.50;;;-0.60;99.90;;;;;;6129150;23;20505;-86
2023/03/10 17:06:30;;;;;;;33.40;14.33;;;-0.30;99.90;;;;;;6182765;23;20479;-85
2023/03/10 17:09:10;;;;;;;36.80;14.93;;;0.70;99.90;;;;;;6158361;23;20027;-87
2023/03/10 17:11:51;;;;;;;32.37;14.13;;;0.10;99.90;;;;;;6184703;23;20013;-88
2023/03/10 17:14:32;;;;;;;31.20;14.90;;;0.40;99.90;;;;;;6172595;23;20024;-84
2023/03/10 17:17:13;;;;;;;31.70;13.70;;;0.90;99.90;;;;;;6157676;23;20013;-85
2023/03/10 17:19:38;;;;;;;33.50;14.87;;;0.20;99.90;;;;;;6183437;23;20025;-83
2023/03/10 17:22:13;;;;;;;34.27;14.87;;;-0.30;99.90;;;;;;6154658;23;20023;-84
2023/03/10 17:24:38;;;;;;;33.17;11.77;;;1.40;99.90;;;;;;6157266;23;20017;-83
2023/03/10 17:27:06;;;;;;;29.77;11.53;;;-0.20;99.90;;;;;;6182178;23;20495;-84
2023/03/10 17:29:44;;;;;;;24.40;10.50;;;-0.20;99.90;;;;;;6183777;23;20067;-84
2023/03/10 17:32:09;;;;;;;24.23;10.23;;;-0.30;99.90;;;;;;6156480;23;20142;-84
2023/03/10 17:34:35;;;;;;;40.73;15.23;;;-0.20;99.90;;;;;;6182653;23;20601;-84
2023/03/10 17:37:16;;;;;;;22.87;9.27;;;-0.20;99.90;;;;;;6183554;23;20017;-83
2023/03/10 17:39:57;;;;;;;16.90;7.30;;;0.10;99.90;;;;;;6157463;23;20048;-84
2023/03/10 17:42:29;;;;;;;14.80;5.97;;;0.00;99.90;;;;;;6183123;23;20022;-84
2023/03/10 17:45:07;;;;;;;17.97;7.47;;;-0.60;99.90;;;;;;6184343;23;20024;-84
2023/03/10 17:47:42;;;;;;;20.03;8.57;;;-0.10;99.90;;;;;;6157589;23;20017;-84
2023/03/10 17:50:17;;;;;;;22.13;8.00;;;1.20;99.90;;;;;;6157911;23;20017;-85
2023/03/10 17:52:47;;;;;;;22.87;7.47;;;0.00;99.90;;;;;;6183376;23;20776;-85
2023/03/10 17:55:34;;;;;;;23.63;8.20;;;-0.60;99.90;;;;;;6158232;23;20021;-85
2023/03/10 17:57:59;;;;;;;19.13;7.93;;;-0.30;99.90;;;;;;6157831;23;20013;-86
2023/03/10 18:00:27;;;;;;;17.77;6.97;;;-0.20;99.90;;;;;;6183784;23;20349;-87
2023/03/10 18:02:57;;;;;;;21.43;6.87;;;1.30;99.90;;;;;;6157413;23;20020;-86
2023/03/10 18:05:23;;;;;;;20.93;7.20;;;0.10;99.90;;;;;;6158484;23;20476;-86
2023/03/10 18:07:52;;;;;;;21.93;7.50;;;-0.60;99.90;;;;;;6158223;23;20021;-86
2023/03/10 18:10:19;;;;;;;19.80;7.43;;;1.00;99.90;;;;;;6158823;23;20013;-86
2023/03/10 18:12:53;;;;;;;23.50;8.67;;;-0.30;99.90;;;;;;6160102;23;20036;-86
2023/03/10 18:19:26;;;;;;;21.87;8.67;;;0.80;99.90;;;;;;6186704;23;20079;-87
2023/03/10 18:22:27;;;;;;;;;;;;;;;;;;;;;
2023/03/10 18:25:20;;;;;;;23.00;9.20;;;0.50;99.90;;;;;;6144630;23;20096;-88
2023/03/10 18:28:04;;;;;;;;;;;;;;;;;;;;;
2023/03/10 21:11:04;;;;;;;11.70;4.00;;;-1.00;99.90;;;;;;6152200;23;20037;-90
2023/03/10 21:40:55;;;;;;;11.00;3.47;;;1.30;99.90;;;;;;6062907;23;20463;-89
2023/03/10 21:44:04;;;;;;;10.10;3.10;;;-1.30;99.90;;;;;;6065039;23;20038;-87
2023/03/10 21:49:41;;;;;;;;;;;;;;;;;;;;;
2023/03/10 21:52:32;;;;;;;10.60;3.50;;;0.50;99.90;;;;;;6091591;23;20022;-87
2023/03/10 21:55:04;;;;;;;11.18;3.53;;;-0.30;99.90;;;;;;6160817;23;20013;-88
2023/03/10 22:00:37;;;;;;;10.83;3.33;;;0.30;99.90;;;;;;6129466;23;20018;-87
2023/03/10 22:03:14;;;;;;;13.37;3.77;;;-0.30;99.90;;;;;;6127567;23;20017;-86
2023/03/10 22:05:43;;;;;;;10.60;3.77;;;-0.40;99.90;;;;;;6129701;23;20014;-88
2023/03/10 22:08:37;;;;;;;11.67;3.50;;;-0.10;99.90;;;;;;6128261;23;20032;-87
2023/03/10 22:11:25;;;;;;;11.37;3.80;;;-0.10;99.90;;;;;;6148115;23;20021;-86
2023/03/10 22:13:58;;;;;;;11.47;4.23;;;-0.40;99.90;;;;;;6012643;23;20026;-87
2023/03/10 22:16:30;;;;;;;10.00;4.03;;;-0.80;99.90;;;;;;6012862;23;20433;-87
2023/03/10 22:19:01;;;;;;;11.87;4.00;;;-0.80;99.90;;;;;;6013786;23;20019;-86
2023/03/10 22:21:27;;;;;;;10.23;3.90;;;-0.50;99.90;;;;;;6013104;23;20449;-86
2023/03/10 22:23:56;;;;;;;9.33;4.23;;;-0.30;99.90;;;;;;6129500;23;20085;-86
2023/03/10 22:26:46;;;;;;;11.57;3.87;;;0.50;99.90;;;;;;6101613;23;20029;-86
2023/03/10 22:29:12;;;;;;;10.10;3.37;;;0.10;99.90;;;;;;6100331;23;20026;-87
2023/03/10 22:31:38;;;;;;;9.00;3.10;;;-0.80;99.90;;;;;;6133485;23;20033;-86
2023/03/10 22:34:03;;;;;;;12.57;3.40;;;0.70;99.90;;;;;;6124056;23;20465;-86
2023/03/10 22:36:29;;;;;;;10.67;3.50;;;0.40;99.90;;;;;;6125514;23;20013;-86
2023/03/10 22:38:56;;;;;;;9.10;2.73;;;-0.60;99.90;;;;;;6126507;23;20022;-86
2023/03/10 22:41:37;;;;;;;9.13;2.77;;;-1.00;99.90;;;;;;6123325;23;20018;-85
2023/03/10 22:44:57;;;;;;;14.02;3.25;;;0.70;99.90;;;;;;6098625;23;20749;-86
2023/03/10 22:48:49;;;;;;;11.77;3.60;;;-0.10;99.90;;;;;;6119638;23;20018;-86
2023/03/10 22:51:18;;;;;;;9.20;3.63;;;-0.70;99.90;;;;;;6128137;23;20046;-87
2023/03/10 22:53:48;;;;;;;10.47;3.20;;;-1.10;99.90;;;;;;6137127;23;20509;-86
2023/03/10 22:56:13;;;;;;;10.23;3.20;;;0.20;99.90;;;;;;6121964;23;20040;-86
2023/03/10 22:58:41;;;;;;;7.83;2.70;;;-0.60;99.90;;;;;;6126076;23;20053;-87
2023/03/10 23:02:12;;;;;;;9.13;2.80;;;-0.40;99.90;;;;;;6081974;23;20064;-87
2023/03/10 23:05:29;;;;;;;9.47;3.60;;;-0.90;99.90;;;;;;6071196;23;20025;-86
2023/03/10 23:07:55;;;;;;;10.40;2.80;;;-0.50;99.90;;;;;;6096549;23;20093;-87
2023/03/10 23:10:29;;;;;;;8.37;2.70;;;0.10;99.90;;;;;;6096284;23;20490;-87
2023/03/10 23:13:07;;;;;;;9.57;2.80;;;-0.80;99.90;;;;;;6095271;23;20073;-87
2023/03/10 23:15:36;;;;;;;9.43;2.80;;;1.50;99.90;;;;;;6071275;23;20022;-87
2023/03/10 23:18:03;;;;;;;7.57;2.40;;;-0.80;99.90;;;;;;6096544;23;20022;-88
2023/03/10 23:20:35;;;;;;;8.60;2.27;;;-0.40;99.90;;;;;;6096841;23;20018;-86
2023/03/10 23:23:10;;;;;;;8.70;2.53;;;-0.80;99.90;;;;;;6071666;23;20072;-87
2023/03/10 23:25:41;;;;;;;9.10;2.30;;;-1.60;99.90;;;;;;6071763;23;20029;-87
2023/03/10 23:28:09;;;;;;;7.73;2.13;;;-0.10;99.90;;;;;;6071945;23;20015;-86
2023/03/10 23:30:37;;;;;;;7.43;2.10;;;0.40;99.90;;;;;;6097195;23;20023;-87
2023/03/10 23:33:35;;;;;;;11.10;2.50;;;0.30;99.90;;;;;;6070951;23;20018;-87
2023/03/10 23:36:11;;;;;;;10.27;2.40;;;-1.30;99.90;;;;;;6065501;23;20029;-87
2023/03/10 23:38:42;;;;;;;10.27;2.20;;;-0.90;99.90;;;;;;6071538;23;20022;-87
2023/03/10 23:41:14;;;;;;;11.53;2.40;;;-0.90;99.90;;;;;;6071863;23;20021;-88
2023/03/10 23:43:40;;;;;;;8.67;2.43;;;-0.60;99.90;;;;;;6070495;23;20054;-87
2023/03/10 23:46:20;;;;;;;7.77;2.30;;;-0.50;99.90;;;;;;6097836;23;20018;-87
2023/03/10 23:48:47;;;;;;;8.23;2.50;;;0.70;99.90;;;;;;6071217;23;20074;-87
2023/03/10 23:51:41;;;;;;;8.30;2.30;;;-0.50;99.90;;;;;;6085842;23;20020;-85
2023/03/10 23:55:00;;;;;;;9.00;2.50;;;-0.60;99.90;;;;;;6145041;23;20394;-87
2023/03/10 23:57:31;;;;;;;9.70;2.37;;;-1.20;99.90;;;;;;6155856;23;20049;-87
